Time;durP1;ratioP1;P1;durP2;ratioP2;P2;SDS_P1;SDS_P2;PMS_P1;PMS_P2;Temp;Humidity;BMP_temperature;BMP_pressure;BME280_temperature;BME280_humidity;BME280_pressure;Samples;Min_cycle;Max_cycle;Signal;HPM_P1;HPM_P2
2023/07/23 00:00:37;;;;;;;;;;;;;;;21.76;50.00;100933.94;5064966;28;19920;-74
2023/07/23 00:03:02;;;;;;;;;;;;;;;21.76;50.37;100924.97;5032577;28;19913;-73
2023/07/23 00:05:27;;;;;;;;;;;;;;;21.75;50.21;100928.69;5033571;28;19917;-73
2023/07/23 00:07:59;;;;;;;;;;;;;;;21.75;50.16;100926.84;5079614;28;20413;-73
2023/07/23 00:10:24;;;;;;;;;;;;;;;21.75;50.17;100923.25;5045535;28;19920;-73
2023/07/23 00:12:50;;;;;;;;;;;;;;;21.75;50.06;100907.91;5045557;28;19917;-74
2023/07/23 00:15:15;;;;;;;;;;;;;;;21.74;50.01;100902.66;5085478;28;19912;-74
2023/07/23 00:17:41;;;;;;;;;;;;;;;21.73;50.21;100884.75;5055131;28;19921;-73
2023/07/23 00:20:07;;;;;;;;;;;;;;;21.74;49.92;100891.81;5054163;28;19943;-74
2023/07/23 00:22:32;;;;;;;;;;;;;;;21.72;50.00;100878.50;5052701;28;19917;-74
2023/07/23 00:24:58;;;;;;;;;;;;;;;21.72;50.32;100883.91;5054916;28;19924;-73
2023/07/23 00:27:23;;;;;;;;;;;;;;;21.73;49.99;100873.91;5053776;28;19913;-74
2023/07/23 00:29:48;;;;;;;;;;;;;;;21.71;50.18;100874.94;5053213;28;19917;-74
2023/07/23 00:32:14;;;;;;;;;;;;;;;21.71;50.14;100863.28;5087263;28;19923;-74
2023/07/23 00:34:39;;;;;;;;;;;;;;;21.70;50.04;100848.91;5050594;28;19917;-74
2023/07/23 00:37:04;;;;;;;;;;;;;;;21.71;50.09;100847.06;5055056;28;19984;-73
2023/07/23 00:39:29;;;;;;;;;;;;;;;21.70;50.13;100840.78;5051120;28;19960;-74
2023/07/23 00:41:55;;;;;;;;;;;;;;;21.69;50.21;100843.69;5054373;28;20381;-74
2023/07/23 00:44:20;;;;;;;;;;;;;;;21.70;50.20;100840.78;5055133;28;19967;-74
2023/07/23 00:46:45;;;;;;;;;;;;;;;21.69;49.90;100832.84;5052938;28;19971;-74
2023/07/23 00:49:11;;;;;;;;;;;;;;;21.69;50.16;100824.75;5053291;28;19960;-74
2023/07/23 00:51:36;;;;;;;;;;;;;;;21.68;50.12;100823.91;5054300;28;19921;-74
2023/07/23 00:54:03;;;;;;;;;;;;;;;21.68;50.20;100815.78;5052815;28;19913;-74
2023/07/23 00:56:28;;;;;;;;;;;;;;;21.68;49.93;100815.78;5051927;28;19917;-74
2023/07/23 00:58:53;;;;;;;;;;;;;;;21.67;50.12;100803.28;5070260;28;19936;-74
2023/07/23 01:01:19;;;;;;;;;;;;;;;21.66;49.87;100798.91;5052978;28;20043;-74
2023/07/23 01:03:45;;;;;;;;;;;;;;;21.67;49.99;100799.75;5051254;28;19913;-74
2023/07/23 01:06:10;;;;;;;;;;;;;;;21.67;49.92;100794.34;5050567;28;19935;-74
2023/07/23 01:08:35;;;;;;;;;;;;;;;21.65;49.88;100790.97;5050361;28;19921;-74
2023/07/23 01:11:01;;;;;;;;;;;;;;;21.65;50.00;100785.56;5054040;28;19935;-74
2023/07/23 01:13:26;;;;;;;;;;;;;;;21.64;49.96;100783.88;5066497;28;19916;-74
2023/07/23 01:15:52;;;;;;;;;;;;;;;21.64;50.05;100779.31;5053799;28;19920;-74
2023/07/23 01:18:17;;;;;;;;;;;;;;;21.63;50.24;100780.34;5051140;28;19921;-74
2023/07/23 01:20:42;;;;;;;;;;;;;;;21.64;50.02;100781.19;5052695;28;19960;-74
2023/07/23 01:23:08;;;;;;;;;;;;;;;21.63;50.22;100776.81;5051935;28;19963;-74
2023/07/23 01:25:33;;;;;;;;;;;;;;;21.63;50.09;100774.94;5054858;28;19963;-74
2023/07/23 01:27:58;;;;;;;;;;;;;;;21.63;49.89;100774.09;5084510;28;19935;-74
2023/07/23 01:30:23;;;;;;;;;;;;;;;21.62;50.07;100767.00;5083640;28;20545;-74
2023/07/23 01:32:49;;;;;;;;;;;;;;;21.62;49.94;100767.00;5068049;28;19921;-74
2023/07/23 01:35:15;;;;;;;;;;;;;;;21.61;49.96;100755.34;5047862;28;19913;-74
2023/07/23 01:37:45;;;;;;;;;;;;;;;21.62;50.06;100756.16;5068888;28;19924;-74
2023/07/23 01:40:10;;;;;;;;;;;;;;;21.61;50.09;100754.50;5081748;28;19913;-74
2023/07/23 01:42:35;;;;;;;;;;;;;;;21.60;49.97;100745.53;5085916;28;19927;-74
2023/07/23 01:45:02;;;;;;;;;;;;;;;21.60;50.04;100744.72;5086075;28;19913;-74
2023/07/23 01:47:27;;;;;;;;;;;;;;;21.60;49.91;100742.00;5085012;28;19913;-74
2023/07/23 01:49:52;;;;;;;;;;;;;;;21.60;50.21;100742.84;5086369;28;19919;-74
2023/07/23 01:52:18;;;;;;;;;;;;;;;21.60;50.11;100736.59;5052222;28;19918;-73
2023/07/23 01:54:43;;;;;;;;;;;;;;;21.59;49.92;100732.22;5052187;28;19924;-74
2023/07/23 01:57:08;;;;;;;;;;;;;;;21.58;50.09;100731.38;5051086;28;19959;-74
2023/07/23 01:59:34;;;;;;;;;;;;;;;21.58;49.96;100730.53;5054775;28;19916;-74
2023/07/23 02:01:59;;;;;;;;;;;;;;;21.58;50.11;100735.94;5048502;28;19913;-74
2023/07/23 02:04:25;;;;;;;;;;;;;;;21.57;50.04;100726.97;5051286;28;19924;-74
2023/07/23 02:06:50;;;;;;;;;;;;;;;21.57;50.09;100721.56;5049009;28;19921;-74
2023/07/23 02:09:15;;;;;;;;;;;;;;;21.57;50.29;100724.28;5050849;28;19919;-74
2023/07/23 02:11:40;;;;;;;;;;;;;;;21.57;49.99;100712.63;5035937;28;19926;-74
2023/07/23 02:14:05;;;;;;;;;;;;;;;21.56;50.23;100711.78;5049705;28;19924;-74
2023/07/23 02:16:31;;;;;;;;;;;;;;;21.56;50.13;100705.53;5051584;28;19917;-74
2023/07/23 02:18:57;;;;;;;;;;;;;;;21.56;50.15;100698.25;5051673;28;19968;-74
2023/07/23 02:21:22;;;;;;;;;;;;;;;21.56;49.94;100694.72;5053025;28;19936;-74
2023/07/23 02:23:47;;;;;;;;;;;;;;;21.55;49.87;100687.63;5048958;28;20386;-74
2023/07/23 02:26:13;;;;;;;;;;;;;;;21.55;50.19;100687.63;5052453;28;20448;-74
2023/07/23 02:28:42;;;;;;;;;;;;;;;21.55;50.18;100680.34;5048699;28;19935;-73
2023/07/23 02:31:07;;;;;;;;;;;;;;;21.54;49.83;100684.09;5050168;28;19916;-74
2023/07/23 02:33:33;;;;;;;;;;;;;;;21.54;50.12;100672.44;5034959;28;19920;-74
2023/07/23 02:35:58;;;;;;;;;;;;;;;21.53;50.26;100671.59;5062849;28;19948;-74
2023/07/23 02:38:23;;;;;;;;;;;;;;;21.53;50.19;100660.75;5068894;28;19952;-74
2023/07/23 02:40:54;;;;;;;;;;;;;;;21.53;49.86;100657.22;5033250;28;19917;-74
2023/07/23 02:43:19;;;;;;;;;;;;;;;21.53;49.93;100651.81;5080977;28;19917;-74
2023/07/23 02:45:45;;;;;;;;;;;;;;;21.52;50.08;100645.56;5052739;28;19984;-74
2023/07/23 02:48:10;;;;;;;;;;;;;;;21.52;50.04;100642.84;5051691;28;19960;-74
2023/07/23 02:50:35;;;;;;;;;;;;;;;21.51;50.15;100646.59;5049511;28;20019;-74
2023/07/23 02:53:00;;;;;;;;;;;;;;;21.52;49.88;100633.91;5051859;28;19964;-74
2023/07/23 02:55:25;;;;;;;;;;;;;;;21.51;50.21;100633.09;5050925;28;19913;-74
2023/07/23 02:57:51;;;;;;;;;;;;;;;21.51;50.02;100624.13;5048354;28;19967;-74
2023/07/23 03:00:18;;;;;;;;;;;;;;;21.50;50.01;100623.28;5083279;28;19981;-74
2023/07/23 03:02:44;;;;;;;;;;;;;;;21.49;50.04;100616.19;5076821;28;19920;-74
2023/07/23 03:05:09;;;;;;;;;;;;;;;21.50;49.87;100615.19;5050895;28;19913;-73
2023/07/23 03:07:35;;;;;;;;;;;;;;;21.50;49.83;100617.88;5079784;28;19921;-73
2023/07/23 03:10:01;;;;;;;;;;;;;;;21.50;50.04;100617.06;5050607;28;20305;-73
2023/07/23 03:12:26;;;;;;;;;;;;;;;21.49;50.14;100609.94;5051083;28;19931;-74
2023/07/23 03:14:52;;;;;;;;;;;;;;;21.49;50.24;100604.53;5050415;28;20325;-74
2023/07/23 03:17:17;;;;;;;;;;;;;;;21.02;49.99;100527.47;5051402;28;20367;-73
2023/07/23 03:19:42;;;;;;;;;;;;;;;21.48;50.03;100603.69;5033536;28;19980;-73
2023/07/23 03:22:07;;;;;;;;;;;;;;;21.48;49.92;100600.16;5051083;28;19913;-73
2023/07/23 03:24:33;;;;;;;;;;;;;;;21.48;49.96;100592.03;5047455;28;19921;-73
2023/07/23 03:26:58;;;;;;;;;;;;;;;21.47;49.97;100602.03;5051538;28;19913;-73
2023/07/23 03:29:23;;;;;;;;;;;;;;;21.47;49.84;100599.31;5048555;28;19916;-73
2023/07/23 03:31:48;;;;;;;;;;;;;;;21.47;50.21;100591.22;5050335;28;19924;-73
2023/07/23 03:34:13;;;;;;;;;;;;;;;21.46;50.17;100597.66;5051301;28;19921;-74
2023/07/23 03:36:38;;;;;;;;;;;;;;;21.46;50.11;100592.25;5046784;28;19924;-74
2023/07/23 03:39:04;;;;;;;;;;;;;;;21.45;49.92;100593.25;5052354;28;19920;-74
2023/07/23 03:41:29;;;;;;;;;;;;;;;21.44;49.88;100589.72;5033414;28;19936;-74
2023/07/23 03:43:54;;;;;;;;;;;;;;;21.44;50.03;100584.31;5051704;28;20376;-74
2023/07/23 03:46:19;;;;;;;;;;;;;;;21.44;49.85;100597.84;5082550;28;19913;-74
2023/07/23 03:48:47;;;;;;;;;;;;;;;21.44;49.91;100578.06;5054284;28;20484;-73
2023/07/23 03:51:13;;;;;;;;;;;;;;;21.44;50.06;100586.19;5051616;28;19917;-73
2023/07/23 03:53:38;;;;;;;;;;;;;;;21.43;50.18;100582.66;5053012;28;19919;-74
2023/07/23 03:56:04;;;;;;;;;;;;;;;21.42;49.94;100578.28;5052926;28;19968;-74
2023/07/23 03:58:29;;;;;;;;;;;;;;;21.42;49.92;100580.97;5053041;28;19913;-74
2023/07/23 04:00:54;;;;;;;;;;;;;;;21.43;50.11;100579.09;5057973;28;19916;-73
2023/07/23 04:03:19;;;;;;;;;;;;;;;21.42;49.87;100564.75;5085120;28;19916;-74
2023/07/23 04:05:44;;;;;;;;;;;;;;;21.43;50.16;100571.00;5053992;28;19991;-73
2023/07/23 04:08:10;;;;;;;;;;;;;;;21.41;50.22;100568.50;5053961;28;19917;-74
2023/07/23 04:10:35;;;;;;;;;;;;;;;21.42;49.94;100564.75;5055392;28;19912;-73
2023/07/23 04:13:03;;;;;;;;;;;;;;;21.42;50.17;100555.81;5053805;28;19917;-74
2023/07/23 04:15:28;;;;;;;;;;;;;;;21.40;49.94;100558.69;5054814;28;19952;-75
2023/07/23 04:17:53;;;;;;;;;;;;;;;21.41;49.95;100552.25;5082795;28;19924;-74
2023/07/23 04:20:19;;;;;;;;;;;;;;;21.42;50.18;100550.41;5053475;28;19972;-74
2023/07/23 04:22:44;;;;;;;;;;;;;;;21.41;50.15;100548.72;5053758;28;19919;-73
2023/07/23 04:25:09;;;;;;;;;;;;;;;21.40;50.06;100545.16;5051903;28;19920;-74
2023/07/23 04:27:34;;;;;;;;;;;;;;;21.41;50.49;100543.31;5087395;28;19913;-73
2023/07/23 04:30:01;;;;;;;;;;;;;;;21.41;50.25;100537.91;5051751;28;20465;-73
2023/07/23 04:32:27;;;;;;;;;;;;;;;21.41;50.46;100544.16;5036340;28;20109;-74
2023/07/23 04:34:52;;;;;;;;;;;;;;;21.41;50.14;100533.34;5055103;28;19917;-73
2023/07/23 04:37:17;;;;;;;;;;;;;;;21.41;50.28;100536.03;5052361;28;19917;-74
2023/07/23 04:39:42;;;;;;;;;;;;;;;21.41;50.36;100527.91;5053253;28;19920;-74
2023/07/23 04:42:07;;;;;;;;;;;;;;;21.41;50.20;100527.91;5086371;28;20012;-74
2023/07/23 04:44:33;;;;;;;;;;;;;;;21.41;50.50;100517.09;5085829;28;20021;-74
2023/07/23 04:46:58;;;;;;;;;;;;;;;21.41;50.30;100514.41;5053144;28;19913;-73
2023/07/23 04:49:23;;;;;;;;;;;;;;;21.41;50.40;100527.09;5056924;28;19919;-73
2023/07/23 04:51:48;;;;;;;;;;;;;;;21.42;50.60;100507.13;5050314;28;19925;-74
2023/07/23 04:54:13;;;;;;;;;;;;;;;21.41;50.24;100516.28;5052528;28;19913;-75
2023/07/23 04:56:39;;;;;;;;;;;;;;;21.41;50.37;100511.69;5050569;28;19917;-74
2023/07/23 04:59:04;;;;;;;;;;;;;;;21.41;50.74;100509.00;5035713;28;19913;-74
2023/07/23 05:01:29;;;;;;;;;;;;;;;21.42;50.93;100507.13;5053797;28;19936;-76
2023/07/23 05:03:54;;;;;;;;;;;;;;;21.42;50.81;100504.41;5051427;28;19920;-76
2023/07/23 05:06:19;;;;;;;;;;;;;;;21.42;51.02;100510.66;5049765;28;20397;-75
2023/07/23 05:08:45;;;;;;;;;;;;;;;21.43;51.15;100514.19;5048444;28;20290;-75
2023/07/23 05:11:10;;;;;;;;;;;;;;;21.44;50.86;100510.44;5054022;28;20419;-75
2023/07/23 05:13:36;;;;;;;;;;;;;;;21.43;51.32;100517.72;5084158;28;19973;-75
2023/07/23 05:16:02;;;;;;;;;;;;;;;21.44;51.11;100519.41;5079815;28;19920;-75
2023/07/23 05:18:27;;;;;;;;;;;;;;;21.44;50.95;100511.28;5048259;28;19921;-74
2023/07/23 05:20:53;;;;;;;;;;;;;;;21.44;51.12;100510.44;5048298;28;19952;-72
2023/07/23 05:23:18;;;;;;;;;;;;;;;21.45;51.11;100507.56;5078613;28;19995;-72
2023/07/23 05:25:43;;;;;;;;;;;;;;;21.45;51.12;100521.09;5052217;28;20298;-71
2023/07/23 05:28:09;;;;;;;;;;;;;;;21.44;51.06;100508.56;5055694;28;19917;-74
2023/07/23 05:30:34;;;;;;;;;;;;;;;21.45;51.24;100512.13;5052210;28;20328;-75
2023/07/23 05:32:59;;;;;;;;;;;;;;;21.44;51.50;100511.28;5053047;28;20376;-77
2023/07/23 05:35:24;;;;;;;;;;;;;;;21.46;51.19;100516.50;5052576;28;19972;-75
2023/07/23 05:37:50;;;;;;;;;;;;;;;21.45;51.24;100509.41;5052698;28;20381;-74
2023/07/23 05:40:15;;;;;;;;;;;;;;;21.45;51.38;100501.28;5051732;28;20354;-73
2023/07/23 05:42:40;;;;;;;;;;;;;;;21.46;51.29;100505.69;5054383;28;19913;-73
2023/07/23 05:45:06;;;;;;;;;;;;;;;21.45;51.36;100504.88;5053684;28;19913;-75
2023/07/23 05:47:31;;;;;;;;;;;;;;;21.45;51.38;100499.47;5049017;28;19996;-75
2023/07/23 05:49:56;;;;;;;;;;;;;;;21.45;51.51;100507.56;5078278;28;19948;-74
2023/07/23 05:52:21;;;;;;;;;;;;;;;21.46;51.70;100511.09;5047635;28;19917;-73
2023/07/23 05:54:46;;;;;;;;;;;;;;;21.47;51.86;100512.78;5084354;28;19921;-74
2023/07/23 05:57:13;;;;;;;;;;;;;;;21.45;51.76;100510.28;5069011;28;19924;-73
2023/07/23 05:59:38;;;;;;;;;;;;;;;21.46;51.58;100508.41;5034492;28;19921;-75
2023/07/23 06:02:03;;;;;;;;;;;;;;;21.47;51.66;100507.38;5046977;28;20019;-73
2023/07/23 06:04:29;;;;;;;;;;;;;;;21.46;51.89;100503.81;5049436;28;19920;-73
2023/07/23 06:06:55;;;;;;;;;;;;;;;21.46;51.63;100503.81;5086388;28;19924;-72
2023/07/23 06:09:21;;;;;;;;;;;;;;;21.46;51.63;100503.81;5050488;28;20286;-73
2023/07/23 06:11:46;;;;;;;;;;;;;;;21.47;51.85;100512.78;5082949;28;19928;-72
2023/07/23 06:14:11;;;;;;;;;;;;;;;21.46;51.67;100511.09;5047796;28;20676;-73
2023/07/23 06:16:36;;;;;;;;;;;;;;;21.46;51.50;100509.22;5087387;28;19959;-75
2023/07/23 06:19:02;;;;;;;;;;;;;;;20.91;51.64;100416.16;5046058;28;19932;-75
2023/07/23 06:21:27;;;;;;;;;;;;;;;21.46;51.71;100509.22;5065957;28;20347;-75
2023/07/23 06:23:52;;;;;;;;;;;;;;;21.46;51.61;100511.09;5053278;28;19920;-75
2023/07/23 06:26:17;;;;;;;;;;;;;;;21.46;51.49;100511.94;5065283;28;19920;-75
2023/07/23 06:28:43;;;;;;;;;;;;;;;21.46;51.26;100509.22;5052884;28;19920;-75
2023/07/23 06:31:08;;;;;;;;;;;;;;;21.45;51.31;100502.16;5051916;28;19939;-75
2023/07/23 06:33:33;;;;;;;;;;;;;;;21.46;51.49;100511.09;5050523;28;20285;-75
2023/07/23 06:35:58;;;;;;;;;;;;;;;21.46;51.49;100505.69;5066365;28;20485;-74
2023/07/23 06:38:24;;;;;;;;;;;;;;;21.46;51.65;100509.22;5051450;28;19920;-77
2023/07/23 06:40:53;;;;;;;;;;;;;;;21.47;51.54;100515.47;5048351;28;20015;-73
2023/07/23 06:43:19;;;;;;;;;;;;;;;21.46;51.52;100516.50;5051683;28;19952;-72
2023/07/23 06:45:44;;;;;;;;;;;;;;;21.46;51.78;100521.94;5050629;28;19913;-72
2023/07/23 06:48:10;;;;;;;;;;;;;;;21.45;51.81;100522.94;5049968;28;19924;-72
2023/07/23 06:50:36;;;;;;;;;;;;;;;21.45;51.51;100517.53;5086343;28;19912;-72
2023/07/23 06:53:01;;;;;;;;;;;;;;;21.41;52.76;100521.69;5047269;28;20720;-72
2023/07/23 06:55:26;;;;;;;;;;;;;;;21.41;52.49;100525.22;5085128;28;19916;-73
2023/07/23 06:57:51;;;;;;;;;;;;;;;21.41;51.83;100525.22;5049786;28;19913;-72
2023/07/23 07:00:16;;;;;;;;;;;;;;;21.42;51.98;100523.34;5052119;28;20039;-72
2023/07/23 07:02:42;;;;;;;;;;;;;;;21.42;52.04;100526.88;5050984;28;19935;-72
2023/07/23 07:05:07;;;;;;;;;;;;;;;21.43;52.04;100525.84;5051068;28;19923;-72
2023/07/23 07:07:32;;;;;;;;;;;;;;;21.43;51.70;100517.72;5051664;28;20026;-73
2023/07/23 07:09:57;;;;;;;;;;;;;;;21.44;52.05;100532.09;5049577;28;19917;-73
2023/07/23 07:12:24;;;;;;;;;;;;;;;21.44;51.65;100530.22;5050493;28;19932;-72
2023/07/23 07:14:49;;;;;;;;;;;;;;;21.44;51.59;100522.09;5046468;28;19963;-73
2023/07/23 07:17:14;;;;;;;;;;;;;;;21.44;51.82;100537.50;5079400;28;19917;-73
2023/07/23 07:19:39;;;;;;;;;;;;;;;21.44;51.81;100532.09;5045997;28;19925;-72
2023/07/23 07:22:04;;;;;;;;;;;;;;;21.44;51.91;100535.63;5052437;28;19936;-72
2023/07/23 07:24:30;;;;;;;;;;;;;;;21.45;51.64;100539.16;5050912;28;19912;-72
2023/07/23 07:26:55;;;;;;;;;;;;;;;21.45;51.55;100536.47;5050740;28;19920;-72
2023/07/23 07:29:20;;;;;;;;;;;;;;;21.44;51.45;100534.78;5051956;28;19928;-72
2023/07/23 07:31:48;;;;;;;;;;;;;;;21.44;51.75;100534.78;5051490;28;19943;-73
2023/07/23 07:34:13;;;;;;;;;;;;;;;21.43;51.72;100533.97;5047235;28;19924;-72
2023/07/23 07:36:38;;;;;;;;;;;;;;;21.44;51.46;100532.09;5080489;28;19976;-72
2023/07/23 07:39:04;;;;;;;;;;;;;;;21.43;51.41;100533.13;5042489;28;19921;-72
2023/07/23 07:41:29;;;;;;;;;;;;;;;21.43;51.64;100536.66;5044724;28;20079;-73
2023/07/23 07:43:55;;;;;;;;;;;;;;;21.43;51.64;100528.56;5051350;28;20007;-72
2023/07/23 07:46:20;;;;;;;;;;;;;;;21.43;51.35;100525.84;5044254;28;19913;-72
2023/07/23 07:48:46;;;;;;;;;;;;;;;21.43;51.38;100516.91;5080365;28;19917;-72
2023/07/23 07:51:11;;;;;;;;;;;;;;;21.43;51.27;100520.44;5047275;28;19935;-72
2023/07/23 07:53:37;;;;;;;;;;;;;;;21.44;51.59;100515.84;5047708;28;19917;-74
2023/07/23 07:56:02;;;;;;;;;;;;;;;21.44;51.40;100515.84;5030272;28;19909;-75
2023/07/23 07:58:27;;;;;;;;;;;;;;;21.44;51.55;100527.50;5033577;28;19925;-74
2023/07/23 08:00:59;;;;;;;;;;;;;;;21.44;51.27;100521.28;5048329;28;19917;-74
2023/07/23 08:03:25;;;;;;;;;;;;;;;21.45;51.20;100528.34;5048724;28;19913;-74
2023/07/23 08:05:51;;;;;;;;;;;;;;;21.46;51.36;100516.50;5047368;28;19939;-74
2023/07/23 08:08:17;;;;;;;;;;;;;;;21.46;51.36;100520.06;5078475;28;19913;-72
2023/07/23 08:10:42;;;;;;;;;;;;;;;21.46;51.17;100520.06;5049276;28;19924;-73
2023/07/23 08:13:08;;;;;;;;;;;;;;;21.48;51.19;100521.72;5043040;28;19921;-73
2023/07/23 08:15:33;;;;;;;;;;;;;;;21.48;51.28;100537.94;5045058;28;19913;-72
2023/07/23 08:17:59;;;;;;;;;;;;;;;21.49;51.17;100528.78;5045576;28;19917;-72
2023/07/23 08:20:26;;;;;;;;;;;;;;;21.50;51.52;100527.78;5045963;28;19917;-73
2023/07/23 08:22:52;;;;;;;;;;;;;;;21.49;51.18;100529.63;5049465;28;19921;-72
2023/07/23 08:25:18;;;;;;;;;;;;;;;21.49;51.15;100529.63;5048092;28;19917;-72
2023/07/23 08:27:43;;;;;;;;;;;;;;;21.50;51.30;100538.59;5076072;28;20227;-72
2023/07/23 08:30:09;;;;;;;;;;;;;;;21.50;51.15;100533.19;5046872;28;19916;-72
2023/07/23 08:32:34;;;;;;;;;;;;;;;21.50;51.32;100528.63;5082338;28;19928;-71
2023/07/23 08:34:59;;;;;;;;;;;;;;;21.50;51.07;100539.44;5073839;28;20404;-72
2023/07/23 08:37:24;;;;;;;;;;;;;;;21.51;51.09;100542.97;5049802;28;20378;-72
2023/07/23 08:39:50;;;;;;;;;;;;;;;21.50;51.46;100535.91;5049150;28;19917;-72
2023/07/23 08:42:30;;;;;;;;;;;;;;;21.50;51.30;100531.31;5065280;28;19913;-72
2023/07/23 08:45:04;;;;;;;;;;;;;;;21.49;51.22;100537.75;5050585;28;19934;-72
2023/07/23 08:47:30;;;;;;;;;;;;;;;21.49;51.46;100537.75;5049897;28;19917;-71
2023/07/23 08:49:55;;;;;;;;;;;;;;;21.50;51.34;100527.78;5085018;28;19913;-72
2023/07/23 08:52:20;;;;;;;;;;;;;;;21.49;51.49;100535.03;5084213;28;19968;-72
2023/07/23 08:54:45;;;;;;;;;;;;;;;21.49;51.59;100535.03;5083618;28;19917;-72
2023/07/23 08:57:11;;;;;;;;;;;;;;;21.49;51.51;100537.75;5048927;28;19956;-70
2023/07/23 08:59:36;;;;;;;;;;;;;;;21.50;51.42;100544.03;5051651;28;19917;-70
2023/07/23 09:02:01;;;;;;;;;;;;;;;21.49;51.56;100537.75;5052325;28;19913;-71
2023/07/23 09:04:27;;;;;;;;;;;;;;;21.49;51.61;100539.63;5048551;28;20003;-71
2023/07/23 09:06:52;;;;;;;;;;;;;;;21.49;51.30;100542.31;5051187;28;19976;-71
2023/07/23 09:09:18;;;;;;;;;;;;;;;21.01;51.35;100464.47;5076132;28;19988;-72
2023/07/23 09:11:43;;;;;;;;;;;;;;;21.49;51.26;100534.22;5052957;28;19952;-72
2023/07/23 09:14:10;;;;;;;;;;;;;;;21.49;51.46;100524.22;5051194;28;19924;-71
2023/07/23 09:16:39;;;;;;;;;;;;;;;21.48;51.49;100527.97;5084886;28;19913;-75
2023/07/23 09:19:05;;;;;;;;;;;;;;;21.49;51.47;100532.34;5047347;28;19927;-71
2023/07/23 09:21:30;;;;;;;;;;;;;;;21.49;51.50;100535.03;5049298;28;19952;-72
2023/07/23 09:23:56;;;;;;;;;;;;;;;21.50;51.34;100533.19;5051724;28;19920;-72
2023/07/23 09:26:26;;;;;;;;;;;;;;;21.50;51.55;100530.50;5085585;28;19917;-71
2023/07/23 09:28:52;;;;;;;;;;;;;;;21.49;51.53;100532.34;5050726;28;19920;-72
2023/07/23 09:31:27;;;;;;;;;;;;;;;21.49;51.27;100537.75;5050760;28;19924;-73
2023/07/23 09:33:54;;;;;;;;;;;;;;;21.49;51.28;100536.91;5086372;28;19917;-73
2023/07/23 09:36:20;;;;;;;;;;;;;;;21.49;51.37;100548.56;5076781;28;20412;-73
2023/07/23 09:38:54;;;;;;;;;;;;;;;21.48;51.61;100544.19;5067867;28;19917;-73
2023/07/23 09:41:20;;;;;;;;;;;;;;;21.49;51.57;100543.16;5047394;28;19945;-73
2023/07/23 09:43:45;;;;;;;;;;;;;;;21.49;51.22;100536.91;5049567;28;20274;-72
2023/07/23 09:46:10;;;;;;;;;;;;;;;21.48;51.42;100525.25;5049439;28;19913;-72
2023/07/23 09:48:37;;;;;;;;;;;;;;;21.49;51.38;100539.63;5051984;28;19913;-73
2023/07/23 09:51:02;;;;;;;;;;;;;;;21.49;51.66;100545.03;5049852;28;19952;-73
2023/07/23 09:53:30;;;;;;;;;;;;;;;21.48;51.66;100538.78;5052019;28;19924;-72
2023/07/23 09:55:56;;;;;;;;;;;;;;;21.49;51.41;100539.63;5051112;28;19924;-72
2023/07/23 09:58:21;;;;;;;;;;;;;;;21.49;51.80;100536.91;5050465;28;19913;-73
2023/07/23 10:00:46;;;;;;;;;;;;;;;21.49;51.38;100526.94;5054824;28;19913;-75
2023/07/23 10:03:12;;;;;;;;;;;;;;;21.49;51.68;100534.22;5047720;28;19923;-74
2023/07/23 10:05:37;;;;;;;;;;;;;;;21.49;51.46;100536.91;5048789;28;19921;-74
2023/07/23 10:08:05;;;;;;;;;;;;;;;21.49;51.72;100528.78;5048872;28;19924;-74
2023/07/23 10:10:30;;;;;;;;;;;;;;;21.50;51.82;100538.59;5049413;28;19939;-74
2023/07/23 10:12:56;;;;;;;;;;;;;;;21.49;51.53;100532.34;5067997;28;19980;-72
2023/07/23 10:15:21;;;;;;;;;;;;;;;21.49;51.28;100537.75;5046405;28;19928;-73
2023/07/23 10:17:47;;;;;;;;;;;;;;;21.50;51.63;100533.19;5082445;28;19917;-72
2023/07/23 10:20:13;;;;;;;;;;;;;;;21.50;51.52;100544.03;5081056;28;19967;-72
2023/07/23 10:22:39;;;;;;;;;;;;;;;21.50;52.07;100544.03;5034855;28;20352;-73
2023/07/23 10:25:25;;;;;;;;;;;;;;;21.50;52.02;100544.84;5031489;28;20064;-74
2023/07/23 10:27:57;;;;;;;;;;;;;;;21.51;52.15;100545.69;5048565;28;20044;-73
2023/07/23 10:30:23;;;;;;;;;;;;;;;21.51;51.87;100543.81;5062862;28;19921;-73
2023/07/23 10:33:08;;;;;;;;;;;;;;;21.51;52.10;100541.09;5049437;28;19936;-74
2023/07/23 10:35:49;;;;;;;;;;;;;;;21.52;52.20;100540.06;5045220;28;19917;-73
2023/07/23 10:38:20;;;;;;;;;;;;;;;21.52;52.11;100553.59;5050794;28;19917;-73
2023/07/23 10:40:46;;;;;;;;;;;;;;;21.53;52.30;100536.31;5050207;28;19916;-71
2023/07/23 10:43:11;;;;;;;;;;;;;;;21.54;52.32;100543.44;5047525;28;19996;-71
2023/07/23 10:45:37;;;;;;;;;;;;;;;21.54;52.29;100543.44;5049424;28;19917;-72
2023/07/23 10:48:03;;;;;;;;;;;;;;;21.53;52.53;100541.72;5083821;28;19959;-72
2023/07/23 10:50:31;;;;;;;;;;;;;;;21.55;52.63;100534.28;5049753;28;19919;-72
2023/07/23 10:53:01;;;;;;;;;;;;;;;21.56;52.72;100538.66;5048525;28;19923;-72
2023/07/23 10:55:36;;;;;;;;;;;;;;;21.56;52.80;100535.09;5051081;28;19917;-71
2023/07/23 10:58:03;;;;;;;;;;;;;;;21.56;52.51;100535.94;5081838;28;19999;-72
2023/07/23 11:00:29;;;;;;;;;;;;;;;21.57;52.76;100525.94;5030915;28;19925;-72
2023/07/23 11:02:55;;;;;;;;;;;;;;;21.57;52.58;100531.38;5042907;28;19959;-72
2023/07/23 11:05:21;;;;;;;;;;;;;;;21.58;52.57;100533.03;5042444;28;19913;-72
2023/07/23 11:08:05;;;;;;;;;;;;;;;21.59;52.41;100542.84;5034295;28;19917;-72
2023/07/23 11:10:43;;;;;;;;;;;;;;;21.59;52.57;100540.13;5046084;28;19924;-71
2023/07/23 11:13:08;;;;;;;;;;;;;;;21.58;52.64;100544.72;5082700;28;19917;-71
2023/07/23 11:15:33;;;;;;;;;;;;;;;21.59;52.63;100542.84;5050849;28;19924;-72
2023/07/23 11:17:59;;;;;;;;;;;;;;;21.60;52.70;100547.22;5049381;28;19916;-71
2023/07/23 11:20:24;;;;;;;;;;;;;;;21.60;52.69;100544.50;5050331;28;19912;-72
2023/07/23 11:22:49;;;;;;;;;;;;;;;21.60;52.46;100552.63;5051225;28;19923;-72
2023/07/23 11:25:15;;;;;;;;;;;;;;;21.59;52.79;100545.56;5048064;28;19996;-71
2023/07/23 11:27:40;;;;;;;;;;;;;;;21.60;52.76;100547.22;5049115;28;20402;-71
2023/07/23 11:30:06;;;;;;;;;;;;;;;21.59;52.77;100550.97;5048682;28;19917;-72
2023/07/23 11:32:31;;;;;;;;;;;;;;;21.58;52.67;100550.13;5045738;28;19953;-72
2023/07/23 11:34:56;;;;;;;;;;;;;;;21.58;52.50;100536.59;5082318;28;19924;-72
2023/07/23 11:37:22;;;;;;;;;;;;;;;21.59;52.84;100556.38;5045475;28;20365;-72
2023/07/23 11:39:50;;;;;;;;;;;;;;;21.59;52.57;100556.38;5051660;28;19920;-71
2023/07/23 11:42:16;;;;;;;;;;;;;;;21.58;52.85;100543.84;5082822;28;19913;-71
2023/07/23 11:44:58;;;;;;;;;;;;;;;21.58;52.88;100552.84;5032133;28;19917;-71
2023/07/23 11:47:23;;;;;;;;;;;;;;;21.59;52.80;100551.78;5048662;28;19924;-71
2023/07/23 11:49:48;;;;;;;;;;;;;;;21.59;52.56;100550.97;5051646;28;19917;-72
2023/07/23 11:52:13;;;;;;;;;;;;;;;21.59;52.81;100546.38;5081799;28;19927;-72
2023/07/23 11:54:43;;;;;;;;;;;;;;;21.59;52.60;100553.66;5048271;28;19951;-72
2023/07/23 11:57:08;;;;;;;;;;;;;;;21.59;52.52;100542.84;5032048;28;19921;-71
2023/07/23 11:59:33;;;;;;;;;;;;;;;21.59;52.92;100551.78;5080053;28;19921;-72
2023/07/23 12:01:58;;;;;;;;;;;;;;;21.59;52.60;100540.97;5055489;28;19939;-72
2023/07/23 12:04:23;;;;;;;;;;;;;;;21.60;52.71;100541.81;5046708;28;19917;-72
2023/07/23 12:06:49;;;;;;;;;;;;;;;21.60;52.58;100533.69;5047439;28;19921;-71
2023/07/23 12:09:14;;;;;;;;;;;;;;;21.61;52.55;100544.31;5047957;28;19917;-71
2023/07/23 12:11:41;;;;;;;;;;;;;;;21.63;52.87;100539.56;5052706;28;19928;-71
2023/07/23 12:14:07;;;;;;;;;;;;;;;21.64;52.72;100533.09;5069203;28;19917;-71
2023/07/23 12:16:38;;;;;;;;;;;;;;;21.64;52.57;100530.41;5085213;28;19948;-72
2023/07/23 12:19:04;;;;;;;;;;;;;;;21.65;52.86;100517.69;5048832;28;20145;-72
2023/07/23 12:21:29;;;;;;;;;;;;;;;21.66;52.89;100527.47;5067439;28;19914;-71
2023/07/23 12:23:54;;;;;;;;;;;;;;;21.68;52.75;100530.84;5084478;28;19984;-72
2023/07/23 12:26:20;;;;;;;;;;;;;;;21.68;53.02;100523.56;5083115;28;20345;-71
2023/07/23 12:28:45;;;;;;;;;;;;;;;21.68;52.91;100520.84;5053859;28;19917;-71